フェアバンクス の空港の天気 - METARとTAF

フェアバンクス国際空港 ( PAFA / FAI ) - アメリカ アラスカ州フェアバンクス
飛行場実況気象(Metar)
観測時間07/28 18:53 AKDT (07/29 02:53 UTC)
風向・風速南南西 2m/s
視程10km以上
天気現象
少しの雲 雲底高度 610m
全天の4割程度の雲 雲底高度 2290m
全天の8割程度の雲 雲底高度 3660m
気温16.7℃
湿度72%
気圧1016.9hPa
METARPAFA 290253Z 21003KT 10SM FEW020 SCT075 BKN120 17/12 A3002 RMK AO2 SLP169 T01670117 58005
過去の天気等 Google飛行場航空写真 Wunderground天気予報

過去48時間のMETAR

飛行場予報(TAF)
発表時間: 7/28 15:42 AKDT (7/28 23:42 UTC)
予報対象時間: 28日16時 AKDT ~ 29日22時 AKDT
風向・風速不定 2m/s
視程10km以上
天気現象周辺でしゅう雨
全天の4割程度の雲 雲底高度 460m
全天の8割程度の雲 雲底高度 1220m
全天を覆う雲 雲底高度 2440m
29日4時 AKDT から
風向・風速南南西 3m/s
視程10km以上
天気現象散在した霧
少しの雲 雲底高度 60m
全天の4割程度の雲 雲底高度 1520m
全天の8割程度の雲 雲底高度 3050m
29日10時 AKDT から
風向・風速南南西 3m/s
視程10km以上
全天の4割程度の雲 雲底高度 2130m
PAFA 282342Z 2900/3006 VRB04KT P6SM VCSH SCT015 BKN040 OVC080
FM291200 20005KT P6SM BCFG FEW002 SCT050 BKN100
FM291800 20006KT P6SM SCT070